Time;durP1;ratioP1;P1;durP2;ratioP2;P2;SDS_P1;SDS_P2;PMS_P1;PMS_P2;Temp;Humidity;BMP_temperature;BMP_pressure;BME280_temperature;BME280_humidity;BME280_pressure;Samples;Min_cycle;Max_cycle;Signal;HPM_P1;HPM_P2
2022/05/10 00:01:10;;;;;;;3.53;2.20;;;4.20;99.90;3.30;101458;;;;562658;250;24113;-77
2022/05/10 00:03:37;;;;;;;3.97;1.90;;;4.30;99.90;3.30;101452;;;;584478;238;24078;-78
2022/05/10 00:06:09;;;;;;;2.40;2.20;;;4.30;99.90;3.20;101447;;;;584925;243;24084;-77
2022/05/10 00:08:36;;;;;;;2.23;2.03;;;4.30;99.90;3.20;101447;;;;567568;249;24127;-77
2022/05/10 00:11:01;;;;;;;2.80;2.07;;;4.20;99.90;3.20;101430;;;;585511;242;24066;-77
2022/05/10 00:13:29;;;;;;;2.80;2.00;;;4.20;99.90;3.20;101439;;;;566563;249;24084;-77
2022/05/10 00:16:01;;;;;;;3.37;2.00;;;4.20;99.90;3.20;101433;;;;580530;245;24116;-76
2022/05/10 00:18:25;;;;;;;2.80;2.07;;;4.20;99.90;3.20;101434;;;;566342;250;24111;-75
2022/05/10 00:20:57;;;;;;;2.30;1.53;;;4.20;99.90;3.20;101435;;;;580016;243;24070;-76
2022/05/10 00:23:22;;;;;;;2.30;1.50;;;4.20;99.90;3.20;101434;;;;566174;250;25166;-77
2022/05/10 00:25:50;;;;;;;1.90;1.60;;;4.20;99.90;3.20;101434;;;;575671;245;24055;-76
2022/05/10 00:28:18;;;;;;;3.90;1.67;;;4.20;99.90;3.20;101431;;;;584863;245;24072;-78
2022/05/10 00:30:47;;;;;;;3.03;1.80;;;4.20;99.90;3.30;101434;;;;566868;250;24078;-78
2022/05/10 00:33:15;;;;;;;1.83;1.50;;;4.20;99.90;3.30;101422;;;;584922;245;24072;-77
2022/05/10 00:35:46;;;;;;;3.70;1.93;;;4.30;99.90;3.30;101421;;;;566629;250;24060;-78
2022/05/10 00:38:11;;;;;;;1.60;1.50;;;4.30;99.90;3.30;101410;;;;575662;245;24172;-77
2022/05/10 00:40:38;;;;;;;2.00;1.80;;;4.30;99.90;3.30;101407;;;;559664;250;24122;-78
2022/05/10 00:43:16;;;;;;;1.70;1.47;;;4.30;99.90;3.30;101403;;;;575678;245;24069;-77
2022/05/10 00:45:54;;;;;;;1.70;1.53;;;4.30;99.90;3.30;101406;;;;575297;245;24129;-77
2022/05/10 00:48:46;;;;;;;4.53;1.80;;;4.20;99.90;3.30;101412;;;;583963;245;24128;-77
2022/05/10 00:51:39;;;;;;;4.00;2.40;;;4.20;99.90;3.20;101407;;;;566153;250;24176;-76
2022/05/10 00:54:19;;;;;;;3.77;1.87;;;4.20;99.90;3.20;101400;;;;584317;245;24085;-76
2022/05/10 00:57:11;;;;;;;6.70;2.03;;;4.20;99.90;3.30;101403;;;;574684;249;24077;-76
2022/05/10 00:59:57;;;;;;;2.17;1.83;;;4.20;99.90;3.30;101391;;;;584495;245;24084;-76
2022/05/10 01:02:58;;;;;;;3.05;2.58;;;4.20;99.90;3.30;101391;;;;570576;245;35065;-76
2022/05/10 01:05:45;;;;;;;3.23;1.90;;;4.30;99.90;3.30;101390;;;;584539;245;24108;-76
2022/05/10 01:08:21;;;;;;;3.90;1.83;;;4.30;99.90;3.30;101390;;;;566114;250;24093;-76
2022/05/10 01:11:13;;;;;;;2.53;1.93;;;4.30;99.90;3.30;101387;;;;575474;245;24128;-76
2022/05/10 01:13:52;;;;;;;3.30;2.13;;;4.30;99.90;3.30;101383;;;;574742;249;24180;-76
2022/05/10 01:16:20;;;;;;;2.30;1.50;;;4.30;99.90;3.40;101371;;;;584240;243;24168;-77
2022/05/10 01:18:52;;;;;;;3.17;2.13;;;4.40;99.90;3.40;101374;;;;566846;249;24105;-77
2022/05/10 01:22:13;;;;;;;7.83;2.53;;;4.40;99.90;3.50;101375;;;;585435;242;24111;-75
2022/05/10 01:25:05;;;;;;;2.87;1.90;;;4.50;99.90;3.50;101372;;;;575530;249;24228;-77
2022/05/10 01:27:51;;;;;;;3.77;2.27;;;4.50;99.90;3.50;101359;;;;585214;242;24057;-76
2022/05/10 01:30:25;;;;;;;2.80;2.10;;;4.50;99.90;3.50;101361;;;;588300;238;24096;-76
2022/05/10 01:36:12;;;;;;;3.00;2.30;;;4.40;99.90;3.50;101341;;;;585648;240;24125;-78
2022/05/10 01:39:11;;;;;;;2.30;1.53;;;4.50;99.90;3.50;101352;;;;575314;245;24085;-77
2022/05/10 01:41:59;;;;;;;1.80;1.57;;;4.50;99.90;3.50;101345;;;;584681;243;24077;-78
2022/05/10 01:44:31;;;;;;;7.90;2.20;;;4.50;99.90;3.50;101346;;;;559711;250;24208;-76
2022/05/10 01:46:58;;;;;;;1.73;1.50;;;4.50;99.90;3.50;101337;;;;574167;245;24160;-77
2022/05/10 01:49:47;;;;;;;1.80;1.57;;;4.50;99.90;3.50;101342;;;;567752;247;24197;-77
2022/05/10 01:52:39;;;;;;;2.07;1.80;;;4.50;99.90;3.50;101342;;;;575149;245;24250;-77
2022/05/10 01:55:36;;;;;;;3.87;1.83;;;4.50;99.90;3.50;101341;;;;584048;243;24070;-75
2022/05/10 01:58:13;;;;;;;3.50;1.97;;;4.50;99.90;3.50;101325;;;;584035;243;24126;-77
2022/05/10 02:00:41;;;;;;;1.90;1.43;;;4.50;99.90;3.40;101341;;;;565896;250;24084;-76
2022/05/10 02:03:34;;;;;;;2.33;1.87;;;4.40;99.90;3.40;101330;;;;575098;245;24089;-77
2022/05/10 02:06:34;;;;;;;3.57;1.63;;;4.40;99.90;3.40;101322;;;;575272;245;24074;-77
2022/05/10 02:09:26;;;;;;;1.90;1.77;;;4.40;99.90;3.40;101323;;;;584415;245;24093;-77
2022/05/10 02:11:54;;;;;;;3.37;1.83;;;4.40;99.90;3.40;101321;;;;574248;250;24154;-77
2022/05/10 02:14:31;;;;;;;1.67;1.40;;;4.40;99.90;3.40;101303;;;;584098;245;24080;-75
2022/05/10 02:17:08;;;;;;;1.50;1.40;;;4.40;99.90;3.50;101303;;;;565941;250;24159;-76
2022/05/10 02:20:00;;;;;;;2.77;1.67;;;4.40;99.90;3.50;101306;;;;586781;239;24083;-77
2022/05/10 02:22:35;;;;;;;2.97;1.87;;;4.50;99.90;3.50;101303;;;;574148;249;24118;-76
2022/05/10 02:25:03;;;;;;;1.87;1.70;;;4.50;99.90;3.50;101297;;;;568273;249;24158;-79
2022/05/10 02:27:43;;;;;;;3.00;1.90;;;4.50;99.90;3.50;101289;;;;574408;250;24154;-77
2022/05/10 02:30:11;;;;;;;1.60;1.40;;;4.50;99.90;3.50;101298;;;;576646;240;24080;-77
2022/05/10 02:35:28;;;;;;;2.43;1.90;;;4.60;99.90;3.60;101283;;;;576726;245;24103;-77
2022/05/10 02:37:56;;;;;;;4.10;1.63;;;4.50;99.90;3.60;101291;;;;567440;249;24103;-75
2022/05/10 02:40:24;;;;;;;4.80;1.73;;;4.60;99.90;3.60;101289;;;;576960;245;24107;-76
2022/05/10 02:42:53;;;;;;;1.80;1.33;;;4.60;99.90;3.60;101288;;;;575190;249;24074;-76
2022/05/10 02:45:21;;;;;;;2.87;1.77;;;4.60;99.90;3.70;101287;;;;585200;245;24143;-76
2022/05/10 02:47:52;;;;;;;2.47;1.63;;;4.60;99.90;3.60;101284;;;;566532;250;24077;-77
2022/05/10 02:50:25;;;;;;;1.73;1.60;;;4.60;99.90;3.60;101279;;;;575531;245;24082;-76
2022/05/10 02:52:53;;;;;;;2.67;2.27;;;4.60;99.90;3.60;101281;;;;576117;245;24091;-77
2022/05/10 02:55:34;;;;;;;2.33;1.60;;;4.60;99.90;3.60;101275;;;;576289;245;25160;-76
2022/05/10 02:58:02;;;;;;;3.50;1.90;;;4.60;99.90;3.60;101269;;;;564139;250;24152;-77
2022/05/10 03:00:30;;;;;;;1.73;1.13;;;4.60;99.90;3.60;101276;;;;580707;243;24078;-77
2022/05/10 03:02:57;;;;;;;7.40;2.07;;;4.60;99.90;3.70;101272;;;;566927;250;24074;-77
2022/05/10 03:05:25;;;;;;;3.33;1.73;;;4.70;99.90;3.80;101281;;;;580445;245;24283;-77
2022/05/10 03:07:53;;;;;;;2.10;1.90;;;4.70;99.90;3.80;101275;;;;566831;250;24065;-78
2022/05/10 03:10:25;;;;;;;2.53;1.87;;;4.70;99.90;3.80;101277;;;;576610;245;24060;-81
2022/05/10 03:12:52;;;;;;;3.93;2.30;;;4.80;99.90;3.80;101267;;;;566815;250;24073;-78
2022/05/10 03:15:21;;;;;;;5.27;2.33;;;4.80;99.90;3.90;101276;;;;576385;245;24102;-80
2022/05/10 03:17:46;;;;;;;3.57;2.10;;;4.80;99.90;3.90;101273;;;;566824;250;24059;-79
2022/05/10 03:20:14;;;;;;;2.57;2.13;;;4.90;99.90;4.00;101275;;;;585730;245;24083;-79
2022/05/10 03:22:41;;;;;;;3.20;2.20;;;4.90;99.90;4.10;101279;;;;576869;245;24210;-77
2022/05/10 03:25:10;;;;;;;4.87;2.17;;;5.10;99.90;4.10;101272;;;;576036;245;24127;-78
2022/05/10 03:27:42;;;;;;;2.90;1.80;;;5.00;99.90;4.20;101265;;;;566849;250;24086;-78
2022/05/10 03:30:10;;;;;;;4.60;2.23;;;5.10;99.90;4.30;101266;;;;576062;245;24212;-76
2022/05/10 03:32:38;;;;;;;6.93;2.20;;;5.20;99.90;4.40;101269;;;;558837;255;24264;-76
2022/05/10 03:35:06;;;;;;;4.93;2.23;;;5.30;99.90;4.50;101270;;;;582145;244;24114;-77
2022/05/10 03:37:30;;;;;;;2.17;1.77;;;5.40;99.90;4.60;101266;;;;575316;245;24097;-77
2022/05/10 03:40:02;;;;;;;6.80;2.43;;;5.60;99.90;4.80;101267;;;;584139;243;24147;-78
2022/05/10 03:42:26;;;;;;;5.90;2.40;;;5.60;99.90;4.90;101269;;;;575284;248;24100;-78
2022/05/10 03:44:55;;;;;;;4.07;1.90;;;5.80;99.90;5.10;101273;;;;585775;242;24089;-78
2022/05/10 03:47:26;;;;;;;3.97;1.93;;;5.90;99.90;5.40;101278;;;;585328;245;24109;-77
2022/05/10 03:49:54;;;;;;;4.43;2.20;;;7.00;99.90;6.40;101282;;;;566706;249;24066;-78
2022/05/10 03:52:19;;;;;;;4.63;1.90;;;7.00;99.90;7.60;101282;;;;574903;245;24129;-77
2022/05/10 03:54:47;;;;;;;4.73;2.10;;;8.20;99.90;7.90;101288;;;;559808;250;24153;-77
2022/05/10 03:57:15;;;;;;;5.13;1.80;;;8.70;99.90;8.30;101280;;;;575894;245;24064;-78
2022/05/10 03:59:43;;;;;;;3.23;2.50;;;10.00;99.90;9.30;101284;;;;566279;250;24140;-77
2022/05/10 04:02:14;;;;;;;8.30;2.83;;;10.00;99.90;10.60;101282;;;;575627;245;24080;-78
2022/05/10 04:04:39;;;;;;;5.97;2.37;;;11.30;98.90;11.90;101285;;;;553029;255;24175;-78
2022/05/10 04:07:07;;;;;;;2.57;2.37;;;12.60;94.80;13.00;101286;;;;581887;245;24101;-77
2022/05/10 04:09:39;;;;;;;2.17;2.00;;;13.80;89.50;14.20;101288;;;;575417;249;24066;-79
2022/05/10 04:12:03;;;;;;;3.87;2.50;;;15.00;80.00;15.30;101290;;;;576184;245;24084;-80
2022/05/10 04:14:31;;;;;;;5.03;2.63;;;17.10;66.50;16.20;101294;;;;566750;250;24103;-78
2022/05/10 04:16:59;;;;;;;3.57;2.80;;;17.10;66.50;16.90;101297;;;;585236;245;24084;-77
2022/05/10 04:19:27;;;;;;;5.30;3.17;;;18.00;61.40;17.80;101300;;;;574711;249;24104;-77
2022/05/10 04:21:55;;;;;;;5.83;3.30;;;18.80;58.20;18.30;101292;;;;584090;245;24127;-76
2022/05/10 04:24:23;;;;;;;3.73;3.23;;;19.50;55.00;19.00;101304;;;;584231;245;24050;-78
2022/05/10 04:26:51;;;;;;;7.33;3.33;;;20.10;53.70;19.70;101294;;;;583989;245;23084;-76
2022/05/10 04:29:19;;;;;;;5.00;3.60;;;20.90;51.20;20.40;101299;;;;574205;249;24135;-76
2022/05/10 04:31:47;;;;;;;4.37;3.20;;;21.50;49.10;20.80;101301;;;;584392;245;23121;-76
2022/05/10 04:34:15;;;;;;;3.90;3.13;;;22.10;47.90;21.30;101300;;;;574701;249;24073;-77
2022/05/10 04:36:44;;;;;;;3.43;2.90;;;22.70;46.20;21.80;101298;;;;584398;243;24053;-79
2022/05/10 04:39:13;;;;;;;4.13;3.47;;;23.00;45.20;22.20;101302;;;;584347;245;24077;-77
2022/05/10 04:41:39;;;;;;;7.23;3.40;;;23.50;43.90;22.80;101303;;;;584320;243;24065;-75
2022/05/10 04:44:06;;;;;;;3.50;2.80;;;24.10;43.20;23.20;101302;;;;584411;243;24141;-76
2022/05/10 04:46:35;;;;;;;5.27;3.53;;;24.50;42.80;24.00;101308;;;;565958;250;24091;-80
2022/05/10 04:49:06;;;;;;;4.70;3.00;;;25.30;41.50;24.40;101305;;;;579519;244;24129;-77
2022/05/10 04:51:30;;;;;;;5.53;3.20;;;25.90;40.60;25.00;101299;;;;552175;256;24216;-76
2022/05/10 04:53:58;;;;;;;6.17;3.67;;;26.30;39.90;25.60;101308;;;;576377;245;23122;-77
2022/05/10 04:56:26;;;;;;;3.70;3.40;;;26.80;39.10;26.00;101306;;;;580696;245;24081;-77
2022/05/10 04:58:57;;;;;;;3.97;3.53;;;27.80;37.70;26.40;101305;;;;584793;243;24126;-77
2022/05/10 05:01:26;;;;;;;7.30;4.17;;;27.70;37.60;26.90;101306;;;;574775;249;24183;-78
2022/05/10 05:03:51;;;;;;;4.37;3.70;;;28.20;36.90;27.30;101312;;;;575444;245;23071;-78
2022/05/10 05:06:18;;;;;;;6.33;3.90;;;28.60;37.10;27.80;101306;;;;574978;249;24101;-77
2022/05/10 05:08:46;;;;;;;7.33;4.40;;;29.00;36.20;28.30;101311;;;;584702;245;23121;-78
2022/05/10 05:11:14;;;;;;;7.37;4.07;;;29.40;35.20;28.50;101306;;;;584410;245;23098;-79
2022/05/10 05:13:45;;;;;;;4.35;3.55;;;29.70;35.20;28.80;101309;;;;574547;249;23077;-81
2022/05/10 05:16:10;;;;;;;9.02;4.30;;;30.00;34.40;29.30;101308;;;;575113;245;23103;-78
2022/05/10 05:18:38;;;;;;;7.00;3.85;;;30.40;34.40;29.30;101308;;;;574610;249;23105;-78
2022/05/10 05:21:06;;;;;;;9.82;3.70;;;30.70;33.60;30.00;101308;;;;584209;245;23075;-79
2022/05/10 05:23:34;;;;;;;6.35;4.25;;;31.10;33.90;30.80;101311;;;;574625;249;23116;-82
2022/05/10 05:26:02;;;;;;;6.55;4.35;;;31.70;33.10;31.30;101311;;;;584277;245;24138;-78
2022/05/10 05:28:30;;;;;;;5.20;3.37;;;32.70;32.30;31.90;101309;;;;574437;249;23072;-77
2022/05/10 05:30:59;;;;;;;6.97;4.40;;;33.20;31.80;32.20;101306;;;;584394;243;24088;-79
2022/05/10 05:33:27;;;;;;;8.43;4.70;;;33.10;31.80;32.60;101301;;;;566184;250;23073;-78
2022/05/10 05:35:55;;;;;;;12.10;4.25;;;33.60;31.80;33.10;101306;;;;575614;245;23115;-79
2022/05/10 05:38:26;;;;;;;9.80;4.05;;;34.10;31.40;33.70;101306;;;;584451;245;23110;-78
2022/05/10 05:40:51;;;;;;;10.60;4.40;;;34.60;30.70;34.30;101312;;;;575209;245;23082;-80
2022/05/10 05:43:19;;;;;;;8.00;3.92;;;35.10;30.10;34.60;101313;;;;584446;245;23194;-81
2022/05/10 05:45:47;;;;;;;7.72;4.47;;;35.50;30.30;35.10;101312;;;;579850;245;23069;-79
2022/05/10 05:48:15;;;;;;;8.68;4.32;;;35.90;30.10;35.40;101310;;;;574537;250;23124;-81
2022/05/10 05:50:43;;;;;;;5.85;4.43;;;36.20;30.00;35.50;101319;;;;584072;243;23109;-83
2022/05/10 05:53:13;;;;;;;4.32;3.90;;;36.50;29.90;35.80;101316;;;;575771;245;23086;-83
2022/05/10 05:55:41;;;;;;;12.30;4.43;;;36.60;29.80;35.90;101315;;;;575419;245;23124;-83
2022/05/10 05:58:06;;;;;;;9.45;4.37;;;36.80;29.50;36.50;101316;;;;561216;254;26398;-84
2022/05/10 06:00:38;;;;;;;5.43;4.20;;;37.30;29.50;36.80;101325;;;;575560;245;23086;-83
2022/05/10 06:03:03;;;;;;;5.18;4.32;;;37.70;29.30;37.50;101322;;;;574714;250;24071;-83
2022/05/10 06:05:31;;;;;;;5.53;4.32;;;38.20;29.20;38.00;101329;;;;585500;243;23082;-83
2022/05/10 06:07:58;;;;;;;11.27;4.20;;;38.70;29.10;38.40;101335;;;;575840;249;23139;-83
2022/05/10 06:10:26;;;;;;;9.98;3.92;;;39.20;28.70;38.60;101326;;;;585377;245;23106;-82
2022/05/10 06:12:54;;;;;;;9.88;4.20;;;39.30;28.40;39.10;101327;;;;575512;249;24081;-81
2022/05/10 06:15:22;;;;;;;11.93;4.25;;;39.70;28.20;39.30;101330;;;;585044;245;23079;-78
2022/05/10 06:17:50;;;;;;;9.60;4.35;;;40.10;28.40;39.60;101333;;;;575368;249;23154;-80
2022/05/10 06:20:17;;;;;;;10.80;4.25;;;40.40;27.70;40.10;101335;;;;585106;245;23056;-81
2022/05/10 06:22:45;;;;;;;9.57;4.32;;;40.70;28.00;40.50;101333;;;;566531;250;23085;-79
2022/05/10 06:25:15;;;;;;;16.55;4.72;;;41.20;27.90;40.70;101322;;;;584629;242;23076;-77
2022/05/10 06:27:41;;;;;;;6.57;3.80;;;41.40;27.40;40.90;101323;;;;580002;245;23080;-80
2022/05/10 06:30:13;;;;;;;9.25;3.90;;;41.60;27.10;40.60;101316;;;;574976;249;23117;-80
2022/05/10 06:32:37;;;;;;;12.98;3.90;;;41.50;27.30;40.70;101314;;;;583884;245;23117;-82
2022/05/10 06:35:05;;;;;;;6.57;4.60;;;41.50;26.80;40.60;101308;;;;569729;249;35189;-84
2022/05/10 06:40:19;;;;;;;6.50;4.00;;;41.70;27.00;41.60;101306;;;;575904;245;24092;-83
2022/05/10 06:42:47;;;;;;;10.55;4.20;;;42.20;27.00;41.40;101302;;;;574860;249;23186;-82
2022/05/10 06:45:15;;;;;;;12.50;4.53;;;42.30;26.60;41.30;101298;;;;584737;245;23062;-83
2022/05/10 06:47:46;;;;;;;10.65;3.42;;;42.00;26.60;41.50;101304;;;;579810;245;23090;-83
2022/05/10 06:50:11;;;;;;;6.97;3.87;;;42.20;27.10;41.50;101294;;;;575752;245;23131;-83
2022/05/10 06:52:42;;;;;;;7.18;3.75;;;42.30;26.90;41.90;101292;;;;565981;250;23177;-79
2022/05/10 06:55:07;;;;;;;7.12;3.97;;;42.60;26.60;42.30;101293;;;;584056;243;23079;-79
2022/05/10 06:57:35;;;;;;;6.57;3.80;;;42.80;26.50;42.50;101294;;;;574422;249;23076;-80
2022/05/10 07:00:03;;;;;;;7.78;4.18;;;43.00;26.10;42.40;101290;;;;584075;245;23105;-78
2022/05/10 07:02:30;;;;;;;8.30;4.05;;;43.10;26.80;42.70;101297;;;;575381;245;23104;-78
2022/05/10 07:04:58;;;;;;;15.90;3.80;;;43.30;26.10;43.10;101298;;;;574422;249;23080;-80
2022/05/10 07:07:27;;;;;;;34.88;5.55;;;43.60;26.20;43.50;101290;;;;583902;243;23092;-79
2022/05/10 07:09:54;;;;;;;18.50;3.60;;;44.00;26.10;44.30;101286;;;;565941;250;23091;-78
2022/05/10 07:12:22;;;;;;;9.00;3.30;;;44.60;26.10;44.70;101275;;;;584100;245;23069;-81
2022/05/10 07:14:50;;;;;;;20.58;4.15;;;45.10;25.40;44.40;101281;;;;584200;245;23080;-78
2022/05/10 07:17:19;;;;;;;19.25;4.45;;;45.00;25.50;44.70;101278;;;;566880;249;23083;-79
2022/05/10 07:19:46;;;;;;;9.90;3.78;;;45.20;25.70;44.90;101279;;;;585060;245;23146;-82
2022/05/10 07:22:14;;;;;;;6.20;3.30;;;45.40;25.20;45.10;101272;;;;576159;245;23163;-81
2022/05/10 07:24:42;;;;;;;6.53;3.33;;;45.60;25.20;45.20;101273;;;;584855;245;23107;-79
2022/05/10 07:27:10;;;;;;;7.10;3.12;;;45.70;25.00;45.30;101269;;;;574972;248;23084;-81
2022/05/10 07:29:38;;;;;;;7.32;3.10;;;45.80;25.10;45.50;101269;;;;584567;245;23111;-79
2022/05/10 07:32:10;;;;;;;3.70;2.92;;;46.40;25.00;46.00;101271;;;;575186;248;23133;-80
2022/05/10 07:34:34;;;;;;;2.65;2.45;;;46.30;25.00;46.10;101276;;;;575746;245;24108;-81
2022/05/10 07:37:02;;;;;;;5.37;2.75;;;46.60;24.80;46.30;101267;;;;574955;249;23101;-81
2022/05/10 07:39:30;;;;;;;10.98;3.47;;;46.80;24.90;46.20;101265;;;;584573;245;23069;-81
2022/05/10 07:42:01;;;;;;;8.75;3.55;;;46.80;24.70;46.50;101260;;;;569956;249;35189;-80
2022/05/10 07:44:26;;;;;;;11.57;3.30;;;47.20;24.60;46.50;101253;;;;584526;243;23076;-81
2022/05/10 07:46:54;;;;;;;9.45;3.40;;;47.20;24.60;46.90;101256;;;;584685;245;23063;-80
2022/05/10 07:49:22;;;;;;;13.80;2.90;;;47.30;24.40;46.80;101250;;;;584555;244;23106;-80
2022/05/10 07:51:52;;;;;;;10.00;3.70;;;47.30;24.30;46.90;101249;;;;575362;245;23194;-79
2022/05/10 07:54:17;;;;;;;5.25;2.50;;;47.40;23.70;46.60;101243;;;;574770;245;24108;-79
2022/05/10 07:56:45;;;;;;;11.85;3.22;;;47.20;24.00;46.20;101244;;;;574371;249;23100;-80
2022/05/10 07:59:15;;;;;;;5.53;2.65;;;47.00;24.30;46.60;101241;;;;583968;245;23085;-80
2022/05/10 08:01:42;;;;;;;9.05;3.28;;;47.00;24.30;47.00;101234;;;;584365;245;23217;-79
2022/05/10 08:04:10;;;;;;;10.18;3.55;;;47.30;24.30;47.20;101238;;;;584019;245;23117;-81
2022/05/10 08:06:38;;;;;;;12.43;3.08;;;47.60;24.10;47.00;101228;;;;574131;249;23093;-81
2022/05/10 08:09:06;;;;;;;7.78;2.90;;;47.70;23.90;46.00;101232;;;;584071;245;23101;-80
2022/05/10 08:11:34;;;;;;;8.73;2.67;;;47.00;23.90;46.20;101235;;;;574176;249;23130;-80
2022/05/10 08:14:02;;;;;;;8.65;2.65;;;46.90;24.20;46.80;101245;;;;584189;245;23139;-80
2022/05/10 08:16:32;;;;;;;2.78;2.47;;;47.30;23.90;46.90;101240;;;;583970;245;23096;-80
2022/05/10 08:18:57;;;;;;;26.12;4.37;;;47.40;24.00;47.20;101239;;;;583781;243;23197;-80
2022/05/10 08:21:28;;;;;;;24.50;4.20;;;47.80;23.90;47.30;101230;;;;575182;245;23116;-80
2022/05/10 08:23:55;;;;;;;10.63;3.40;;;47.90;24.40;47.50;101230;;;;562472;250;23081;-79
2022/05/10 08:26:21;;;;;;;5.60;2.20;;;48.20;24.00;47.10;101223;;;;584094;245;23095;-82
2022/05/10 08:28:49;;;;;;;11.25;3.30;;;48.10;23.50;46.30;101216;;;;571287;245;46074;-79
2022/05/10 08:31:20;;;;;;;5.45;2.42;;;47.60;23.90;46.10;101216;;;;585479;245;23134;-82
2022/05/10 08:33:49;;;;;;;7.55;2.70;;;47.10;24.20;46.30;101220;;;;585049;245;23155;-82
2022/05/10 08:36:14;;;;;;;3.37;2.42;;;47.10;24.20;46.90;101220;;;;585011;242;23069;-79
2022/05/10 08:38:42;;;;;;;5.82;2.53;;;47.40;24.30;47.30;101207;;;;575145;249;23066;-80
2022/05/10 08:41:18;;;;;;;7.40;2.60;;;47.90;23.80;47.70;101207;;;;584914;245;23107;-84
2022/05/10 08:44:07;;;;;;;10.18;2.80;;;48.40;23.30;47.90;101205;;;;566756;250;23084;-84
2022/05/10 08:46:38;;;;;;;5.00;2.40;;;48.80;23.40;47.80;101198;;;;584510;245;23110;-83
2022/05/10 08:49:34;;;;;;;5.80;2.90;;;48.80;23.30;47.50;101194;;;;575741;245;24114;-82
2022/05/10 08:52:06;;;;;;;8.93;3.62;;;48.70;23.30;47.80;101197;;;;584428;243;23105;-81
2022/05/10 08:54:30;;;;;;;8.95;3.85;;;48.70;23.50;48.40;101191;;;;565406;250;24181;-80
2022/05/10 08:57:04;;;;;;;11.85;3.25;;;49.10;23.60;48.50;101188;;;;584464;245;23095;-80
2022/05/10 08:59:47;;;;;;;9.60;4.43;;;49.40;23.50;48.20;101185;;;;582588;245;24153;-80
2022/05/10 09:02:16;;;;;;;7.30;3.70;;;49.50;23.00;48.40;101180;;;;566737;248;23081;-81
2022/05/10 09:05:09;;;;;;;10.20;3.40;;;49.20;22.80;47.40;101192;;;;579306;245;23098;-81
2022/05/10 09:07:42;;;;;;;6.75;4.10;;;49.20;22.80;46.30;101175;;;;575132;245;23134;-80
2022/05/10 09:10:32;;;;;;;29.00;5.78;;;47.50;23.40;45.90;101172;;;;574714;249;23101;-82
2022/05/10 09:13:02;;;;;;;14.60;4.60;;;47.50;23.30;45.60;101169;;;;584009;245;23077;-83
2022/05/10 09:15:36;;;;;;;15.68;3.78;;;47.00;23.70;45.80;101165;;;;566430;246;23135;-80
2022/05/10 09:18:09;;;;;;;9.02;2.75;;;47.10;23.60;46.00;101159;;;;582241;245;23109;-80
2022/05/10 09:20:38;;;;;;;5.95;2.90;;;47.30;23.20;45.70;101150;;;;584066;245;23121;-78
2022/05/10 09:23:26;;;;;;;11.73;2.90;;;47.00;23.40;45.80;101153;;;;579301;243;24105;-79
2022/05/10 09:26:00;;;;;;;25.42;4.35;;;47.40;23.70;46.40;101143;;;;562606;251;23159;-84
2022/05/10 09:28:34;;;;;;;8.50;3.50;;;47.40;23.70;46.90;101143;;;;572829;245;23079;-80
2022/05/10 09:37:32;;;;;;;39.90;5.75;;;47.80;23.20;45.20;101132;;;;565923;250;23123;-79
2022/05/10 09:40:18;;;;;;;40.40;4.22;;;47.10;23.20;44.20;101130;;;;585504;244;23101;-80
2022/05/10 09:42:46;;;;;;;24.92;3.70;;;46.30;23.40;44.30;101125;;;;562611;249;23076;-83
2022/05/10 09:45:14;;;;;;;17.48;2.72;;;46.00;23.50;43.30;101117;;;;566564;247;23083;-82
2022/05/10 09:47:41;;;;;;;15.63;3.00;;;45.30;23.40;42.10;101109;;;;580098;245;23064;-79
2022/05/10 09:50:19;;;;;;;15.05;2.60;;;44.20;23.70;41.90;101114;;;;579678;245;23119;-82
2022/05/10 09:52:46;;;;;;;23.05;3.97;;;43.60;24.20;42.50;101108;;;;585128;245;24165;-83
2022/05/10 09:55:25;;;;;;;9.77;2.40;;;43.90;24.50;43.20;101107;;;;574961;249;23112;-79
2022/05/10 09:57:54;;;;;;;6.68;2.05;;;45.10;23.90;43.80;101111;;;;575566;245;23135;-80
2022/05/10 10:00:40;;;;;;;10.52;2.58;;;45.10;23.90;43.50;101103;;;;565978;250;23097;-81
2022/05/10 10:03:11;;;;;;;6.53;2.45;;;45.10;23.80;43.70;101100;;;;579455;245;23085;-78
2022/05/10 10:05:36;;;;;;;8.40;2.05;;;45.20;23.50;43.60;101093;;;;574498;250;23094;-81
2022/05/10 10:08:07;;;;;;;12.57;3.20;;;45.30;23.90;43.10;101080;;;;579857;245;23122;-82
2022/05/10 10:10:32;;;;;;;8.35;2.90;;;45.10;23.60;42.90;101079;;;;574805;249;23089;-83
2022/05/10 10:13:00;;;;;;;9.02;2.72;;;44.80;23.60;41.60;101079;;;;579710;245;23085;-79
2022/05/10 10:15:31;;;;;;;5.57;1.92;;;43.80;23.90;40.70;101068;;;;573250;250;23085;-79
2022/05/10 10:18:00;;;;;;;12.65;2.62;;;41.60;24.40;39.40;101069;;;;584185;244;23080;-80
2022/05/10 10:20:52;;;;;;;6.22;2.20;;;40.70;25.00;38.90;101055;;;;565873;249;23167;-78
2022/05/10 10:23:23;;;;;;;16.35;3.03;;;40.70;25.00;38.50;101057;;;;584086;243;23072;-79
2022/05/10 10:25:51;;;;;;;15.82;2.90;;;39.90;25.20;37.50;101056;;;;566176;249;23075;-78
2022/05/10 10:28:22;;;;;;;4.68;1.90;;;39.20;25.40;36.60;101055;;;;579498;245;24167;-78
2022/05/10 10:31:19;;;;;;;7.30;2.25;;;38.30;25.60;36.00;101056;;;;579611;245;23082;-79
2022/05/10 10:33:53;;;;;;;23.67;3.10;;;37.50;26.00;35.10;101051;;;;574878;249;23077;-78
2022/05/10 10:36:40;;;;;;;11.55;2.83;;;35.60;26.80;34.30;101041;;;;575783;245;24071;-76
2022/05/10 10:39:14;;;;;;;8.82;2.20;;;35.60;26.80;32.80;101045;;;;566352;249;23087;-77
2022/05/10 10:41:48;;;;;;;8.30;2.35;;;34.10;27.60;31.20;101035;;;;584642;243;23078;-78
2022/05/10 10:44:22;;;;;;;12.23;2.83;;;32.50;28.40;30.20;101029;;;;574834;249;23096;-77
2022/05/10 10:47:29;;;;;;;10.88;2.15;;;31.10;29.40;29.10;101009;;;;584456;245;23117;-81
2022/05/10 10:50:12;;;;;;;8.57;2.22;;;29.90;29.90;27.90;101013;;;;566492;248;23083;-78
2022/05/10 10:52:44;;;;;;;12.33;2.30;;;28.60;31.60;27.20;101006;;;;585945;244;23170;-78
2022/05/10 10:55:18;;;;;;;8.50;2.60;;;27.80;32.40;26.50;100996;;;;562251;253;23199;-83
2022/05/10 10:58:06;;;;;;;8.87;2.30;;;27.10;32.90;25.80;100990;;;;574650;245;24090;-78
2022/05/10 11:00:34;;;;;;;8.50;2.10;;;26.40;33.50;24.70;100989;;;;584838;245;23123;-79
2022/05/10 11:03:14;;;;;;;10.30;1.87;;;25.50;33.80;24.00;100990;;;;566470;249;24102;-79
2022/05/10 11:06:00;;;;;;;3.17;1.53;;;24.80;35.00;23.80;100987;;;;584845;245;23080;-79
2022/05/10 11:08:53;;;;;;;8.60;2.37;;;24.30;36.50;23.50;100978;;;;574829;249;24079;-78
2022/05/10 11:11:44;;;;;;;9.27;1.93;;;24.00;37.10;23.10;100974;;;;584877;244;24076;-77
2022/05/10 11:14:24;;;;;;;3.83;2.00;;;23.60;36.80;22.90;100976;;;;575002;245;24086;-78
2022/05/10 11:17:07;;;;;;;7.07;1.90;;;23.40;37.40;22.80;100969;;;;581620;245;24066;-77
2022/05/10 11:19:50;;;;;;;13.07;2.13;;;23.20;37.50;22.60;100965;;;;574649;248;24054;-78
2022/05/10 11:22:36;;;;;;;5.57;1.90;;;23.10;37.90;22.70;100956;;;;581587;243;24062;-77
2022/05/10 11:25:40;;;;;;;8.03;3.40;;;23.10;38.30;22.80;100952;;;;566631;246;24145;-77
2022/05/10 11:28:17;;;;;;;8.00;2.07;;;23.20;37.80;22.80;100936;;;;575765;245;24130;-77
2022/05/10 11:31:06;;;;;;;9.40;2.00;;;23.20;37.80;22.90;100950;;;;574233;250;24081;-82
2022/05/10 11:33:59;;;;;;;7.57;1.97;;;23.30;38.20;22.90;100950;;;;584213;243;24220;-81
2022/05/10 11:36:39;;;;;;;8.27;1.63;;;23.30;38.10;22.80;100937;;;;568437;250;24098;-81
2022/05/10 11:39:19;;;;;;;5.13;1.80;;;23.30;37.40;22.90;100928;;;;575859;245;24061;-77
2022/05/10 11:42:08;;;;;;;4.70;1.60;;;23.30;37.50;22.80;100921;;;;575844;245;24167;-77
2022/05/10 11:45:13;;;;;;;44.13;4.10;;;23.30;37.10;22.50;100904;;;;579849;244;24071;-79
2022/05/10 11:47:58;;;;;;;20.17;3.17;;;23.10;36.80;22.20;100906;;;;561632;250;24086;-78
2022/05/10 11:54:22;;;;;;;6.07;1.80;;;22.70;37.90;22.10;100887;;;;568540;246;24101;-78
2022/05/10 11:56:50;;;;;;;10.60;1.90;;;22.60;38.40;22.10;100891;;;;584611;245;23101;-78